createdAt,value
2022-08-28T00:00:37.779Z,1.08
2022-08-28T00:03:05.779Z,0.65
2022-08-28T00:05:33.265Z,1.55
2022-08-28T00:08:00.343Z,0.30
2022-08-28T00:10:28.418Z,1.33
2022-08-28T00:12:57.488Z,1.08
2022-08-28T00:15:31.448Z,0.85
2022-08-28T00:17:58.906Z,1.45
2022-08-28T00:20:26.789Z,1.27
2022-08-28T00:22:55.588Z,0.28
2022-08-28T00:25:25.047Z,1.17
2022-08-28T00:27:53.060Z,0.60
2022-08-28T00:30:25.950Z,0.65
2022-08-28T00:32:54.111Z,0.63
2022-08-28T00:35:21.830Z,0.47
2022-08-28T00:37:48.639Z,0.47
2022-08-28T00:40:18.656Z,0.65
2022-08-28T00:42:56.172Z,0.47
2022-08-28T00:45:24.469Z,0.73
2022-08-28T00:47:51.310Z,0.32
2022-08-28T00:50:21.330Z,0.82
2022-08-28T00:52:50.601Z,0.20
2022-08-28T00:55:20.981Z,0.65
2022-08-28T01:00:31.128Z,0.55
2022-08-28T01:02:58.958Z,0.30
2022-08-28T01:05:26.550Z,0.73
2022-08-28T01:07:55.339Z,1.02
2022-08-28T01:10:23.803Z,0.60
2022-08-28T01:12:51.441Z,0.25
2022-08-28T01:15:24.142Z,0.70
2022-08-28T01:17:54.384Z,0.60
2022-08-28T01:20:24.828Z,0.60
2022-08-28T01:25:24.709Z,0.70
2022-08-28T01:27:51.716Z,0.20
2022-08-28T01:30:21.534Z,0.55
2022-08-28T01:32:53.992Z,0.17
2022-08-28T01:35:25.746Z,0.25
2022-08-28T01:37:53.143Z,0.65
2022-08-28T01:40:32.549Z,0.20
2022-08-28T01:43:20.058Z,0.47
2022-08-28T01:45:54.433Z,0.57
2022-08-28T01:48:23.247Z,0.80
2022-08-28T01:50:50.586Z,0.70
2022-08-28T01:53:20.466Z,0.55
2022-08-28T01:55:53.863Z,0.32
2022-08-28T01:58:21.965Z,0.40
2022-08-28T02:00:53.887Z,0.50
2022-08-28T02:03:23.088Z,0.28
2022-08-28T02:05:55.302Z,0.95
2022-08-28T02:08:23.886Z,0.88
2022-08-28T02:10:52.899Z,0.20
2022-08-28T02:13:20.589Z,0.70
2022-08-28T02:15:47.891Z,0.30
2022-08-28T02:18:15.416Z,0.15
2022-08-28T02:20:43.133Z,0.60
2022-08-28T02:23:10.748Z,0.68
2022-08-28T02:25:37.639Z,0.68
2022-08-28T02:28:04.729Z,0.40
2022-08-28T02:30:32.252Z,0.77
2022-08-28T02:32:59.283Z,0.32
2022-08-28T02:35:26.620Z,0.25
2022-08-28T02:37:54.551Z,0.57
2022-08-28T02:40:23.962Z,0.80
2022-08-28T02:42:56.544Z,0.40
2022-08-28T02:45:25.021Z,0.28
2022-08-28T02:47:54.252Z,0.50
2022-08-28T02:50:22.131Z,0.38
2022-08-28T02:52:49.359Z,0.70
2022-08-28T02:55:18.733Z,0.30
2022-08-28T02:57:47.287Z,0.43
2022-08-28T03:00:18.201Z,0.47
2022-08-28T03:02:46.446Z,0.77
2022-08-28T03:05:15.784Z,0.45
2022-08-28T03:07:43.218Z,0.32
2022-08-28T03:10:10.917Z,0.30
2022-08-28T03:12:38.399Z,0.32
2022-08-28T03:15:07.810Z,0.15
2022-08-28T03:17:37.093Z,0.40
2022-08-28T03:20:06.752Z,0.20
2022-08-28T03:22:52.064Z,0.10
2022-08-28T03:25:19.109Z,0.47
2022-08-28T03:27:46.127Z,0.47
2022-08-28T03:30:14.513Z,0.30
2022-08-28T03:32:41.598Z,0.25
2022-08-28T03:35:09.189Z,0.30
2022-08-28T03:37:36.759Z,0.50
2022-08-28T03:40:06.168Z,0.50
2022-08-28T03:42:33.553Z,0.20
2022-08-28T03:45:00.763Z,0.43
2022-08-28T03:47:30.876Z,0.60
2022-08-28T03:49:58.453Z,0.40
2022-08-28T03:52:25.242Z,0.65
2022-08-28T03:54:53.011Z,0.45
2022-08-28T03:57:21.745Z,0.32
2022-08-28T03:59:51.998Z,0.10
2022-08-28T04:02:20.790Z,0.15
2022-08-28T04:04:51.561Z,0.30
2022-08-28T04:07:19.432Z,0.50
2022-08-28T04:09:47.349Z,0.30
2022-08-28T04:12:14.667Z,0.10
2022-08-28T04:14:42.211Z,0.85
2022-08-28T04:17:10.113Z,0.35
2022-08-28T04:19:38.233Z,0.40
2022-08-28T04:22:05.575Z,0.22
2022-08-28T04:24:32.798Z,0.40
2022-08-28T04:27:00.044Z,0.10
2022-08-28T04:29:27.141Z,0.20
2022-08-28T04:31:55.143Z,0.40
2022-08-28T04:34:22.213Z,0.35
2022-08-28T04:36:51.713Z,0.28
2022-08-28T04:39:19.017Z,0.50
2022-08-28T04:41:46.216Z,0.60
2022-08-28T04:44:13.272Z,0.30
2022-08-28T04:46:40.572Z,0.28
2022-08-28T04:49:07.804Z,0.43
2022-08-28T04:51:38.852Z,0.30
2022-08-28T04:54:10.978Z,0.85
2022-08-28T04:56:40.150Z,0.10
2022-08-28T04:59:07.585Z,0.95
2022-08-28T05:01:34.863Z,0.50
2022-08-28T05:04:03.251Z,0.40
2022-08-28T05:06:31.669Z,0.52
2022-08-28T05:09:01.080Z,0.60
2022-08-28T05:11:33.292Z,0.38
2022-08-28T05:14:04.777Z,0.43
2022-08-28T05:16:33.322Z,0.40
2022-08-28T05:19:04.032Z,0.17
2022-08-28T05:21:31.275Z,0.32
2022-08-28T05:23:59.185Z,0.63
2022-08-28T05:26:28.359Z,0.50
2022-08-28T05:28:58.046Z,0.65
2022-08-28T05:31:26.526Z,0.65
2022-08-28T05:33:54.195Z,0.63
2022-08-28T05:36:23.080Z,0.30
2022-08-28T05:38:56.872Z,0.57
2022-08-28T05:41:29.430Z,0.20
2022-08-28T05:43:59.353Z,0.30
2022-08-28T05:46:28.348Z,0.30
2022-08-28T05:48:56.260Z,0.55
2022-08-28T05:51:25.049Z,0.17
2022-08-28T05:53:52.635Z,0.35
2022-08-28T05:56:24.462Z,0.43
2022-08-28T05:58:52.080Z,0.28
2022-08-28T06:01:21.923Z,0.80
2022-08-28T06:03:55.369Z,0.50
2022-08-28T06:06:24.786Z,0.30
2022-08-28T06:08:59.947Z,0.47
2022-08-28T06:11:30.322Z,0.40
2022-08-28T06:14:03.873Z,0.55
2022-08-28T06:16:32.940Z,0.22
2022-08-28T06:19:00.879Z,0.20
2022-08-28T06:21:29.119Z,0.20
2022-08-28T06:23:56.714Z,0.77
2022-08-28T06:26:24.150Z,0.45
2022-08-28T06:28:52.594Z,0.77
2022-08-28T06:31:23.541Z,0.47
2022-08-28T06:33:54.401Z,0.73
2022-08-28T06:36:22.364Z,0.43
2022-08-28T06:38:49.482Z,0.10
2022-08-28T06:41:18.104Z,0.20
2022-08-28T06:43:45.572Z,0.35
2022-08-28T06:46:13.270Z,0.25
2022-08-28T06:48:49.708Z,0.20
2022-08-28T06:51:17.719Z,0.43
2022-08-28T06:53:45.970Z,0.20
2022-08-28T06:56:25.567Z,0.20
2022-08-28T06:58:55.428Z,0.20
2022-08-28T07:01:29.373Z,0.55
2022-08-28T07:04:02.282Z,0.30
2022-08-28T07:06:33.698Z,0.22
2022-08-28T07:09:01.106Z,0.30
2022-08-28T07:11:31.535Z,0.20
2022-08-28T07:13:59.065Z,0.15
2022-08-28T07:16:30.218Z,1.90
2022-08-28T07:18:58.447Z,0.50
2022-08-28T07:21:26.231Z,0.20
2022-08-28T07:23:53.930Z,0.20
2022-08-28T07:26:25.668Z,0.40
2022-08-28T07:28:53.671Z,0.82
2022-08-28T07:31:41.319Z,0.40
2022-08-28T07:34:09.799Z,0.55
2022-08-28T07:36:38.773Z,0.45
2022-08-28T07:39:08.157Z,0.80
2022-08-28T07:41:39.470Z,0.43
2022-08-28T07:44:26.772Z,0.47
2022-08-28T07:46:59.500Z,0.43
2022-08-28T07:49:27.622Z,0.63
2022-08-28T07:51:54.791Z,1.05
2022-08-28T07:54:23.146Z,0.50
2022-08-28T07:56:50.569Z,0.35
2022-08-28T07:59:19.330Z,1.10
2022-08-28T08:01:48.041Z,1.02
2022-08-28T08:04:16.262Z,0.70
2022-08-28T08:06:44.463Z,1.48
2022-08-28T08:09:14.687Z,0.82
2022-08-28T08:14:08.311Z,0.68
2022-08-28T08:16:38.911Z,0.35
2022-08-28T08:19:06.826Z,0.73
2022-08-28T08:21:33.787Z,0.40
2022-08-28T08:24:00.990Z,0.30
2022-08-28T08:26:28.452Z,0.68
2022-08-28T08:28:55.660Z,0.90
2022-08-28T08:31:28.432Z,0.38
2022-08-28T08:33:57.738Z,0.85
2022-08-28T08:36:26.866Z,0.82
2022-08-28T08:38:59.459Z,1.13
2022-08-28T08:41:48.512Z,0.60
2022-08-28T08:44:33.846Z,0.77
2022-08-28T08:47:15.230Z,0.73
2022-08-28T08:49:48.308Z,0.70
2022-08-28T08:52:41.671Z,0.77
2022-08-28T08:55:32.127Z,0.85
2022-08-28T08:58:06.168Z,0.77
2022-08-28T09:00:38.326Z,1.02
2022-08-28T09:03:09.947Z,0.95
2022-08-28T09:05:43.084Z,1.95
2022-08-28T09:08:20.555Z,0.60
2022-08-28T09:10:54.654Z,0.55
2022-08-28T09:13:29.152Z,0.88
2022-08-28T09:15:56.049Z,0.60
2022-08-28T09:18:28.822Z,1.00
2022-08-28T09:21:01.974Z,1.23
2022-08-28T09:23:38.232Z,0.43
2022-08-28T09:26:14.597Z,2.00
2022-08-28T09:28:44.627Z,0.85
2022-08-28T09:31:20.225Z,0.77
2022-08-28T09:33:51.316Z,0.70
2022-08-28T09:36:26.398Z,0.70
2022-08-28T09:39:12.727Z,1.05
2022-08-28T09:42:23.978Z,0.52
2022-08-28T09:45:01.650Z,0.70
2022-08-28T09:47:46.797Z,0.77
2022-08-28T09:50:29.168Z,0.80
2022-08-28T09:53:16.601Z,0.73
2022-08-28T09:56:19.782Z,0.98
2022-08-28T09:58:51.117Z,1.05
2022-08-28T10:01:27.272Z,1.13
2022-08-28T10:04:16.689Z,0.50
2022-08-28T10:06:53.143Z,1.23
2022-08-28T10:09:32.810Z,0.50
2022-08-28T10:12:37.293Z,0.75
2022-08-28T10:15:13.689Z,0.77
2022-08-28T10:17:57.487Z,0.80
2022-08-28T10:20:55.002Z,1.00
2022-08-28T10:23:21.681Z,1.13
2022-08-28T10:25:57.554Z,1.38
2022-08-28T10:29:02.681Z,1.83
2022-08-28T10:32:08.549Z,1.23
2022-08-28T10:34:50.407Z,0.38
2022-08-28T10:37:48.405Z,1.00
2022-08-28T10:40:28.558Z,0.93
2022-08-28T10:43:14.921Z,1.10
2022-08-28T10:45:42.242Z,0.57
2022-08-28T10:48:49.812Z,1.42
2022-08-28T10:51:36.320Z,1.30
2022-08-28T10:54:20.385Z,1.33
2022-08-28T10:56:56.003Z,0.75
2022-08-28T10:59:27.522Z,0.90
2022-08-28T11:01:54.289Z,0.73
2022-08-28T11:04:25.652Z,0.50
2022-08-28T11:07:02.596Z,1.00
2022-08-28T11:09:39.768Z,0.60
2022-08-28T11:12:28.144Z,0.40
2022-08-28T11:14:55.033Z,1.40
2022-08-28T11:17:25.317Z,0.75
2022-08-28T11:20:03.837Z,1.48
2022-08-28T11:22:35.131Z,1.35
2022-08-28T11:25:55.292Z,0.93
2022-08-28T11:28:25.556Z,1.05
2022-08-28T11:31:28.715Z,0.88
2022-08-28T11:33:59.052Z,0.85
2022-08-28T11:36:28.166Z,0.82
2022-08-28T11:38:56.364Z,1.23
2022-08-28T11:41:35.275Z,0.60
2022-08-28T11:44:13.893Z,1.13
2022-08-28T11:46:43.358Z,0.90
2022-08-28T11:49:39.982Z,1.65
2022-08-28T11:52:44.810Z,0.55
2022-08-28T11:55:25.631Z,0.43
2022-08-28T11:58:21.274Z,0.40
2022-08-28T12:00:47.950Z,1.13
2022-08-28T12:03:24.234Z,0.40
2022-08-28T12:05:54.943Z,0.47
2022-08-28T12:08:59.045Z,0.60
2022-08-28T12:12:07.136Z,0.75
2022-08-28T12:14:36.941Z,1.10
2022-08-28T12:17:03.799Z,1.02
2022-08-28T12:19:40.230Z,0.57
2022-08-28T12:22:12.018Z,0.28
2022-08-28T12:24:51.079Z,0.65
2022-08-28T12:27:18.049Z,0.60
2022-08-28T12:29:56.591Z,0.45
2022-08-28T12:32:36.371Z,0.68
2022-08-28T12:35:03.153Z,0.28
2022-08-28T12:37:52.746Z,1.20
2022-08-28T12:40:25.995Z,0.70
2022-08-28T12:42:59.041Z,0.70
2022-08-28T12:45:44.998Z,0.63
2022-08-28T12:48:22.382Z,0.68
2022-08-28T12:50:57.610Z,1.23
2022-08-28T12:53:25.545Z,1.15
2022-08-28T12:55:53.637Z,0.68
2022-08-28T12:58:35.498Z,0.82
2022-08-28T13:01:23.023Z,0.50
2022-08-28T13:03:50.822Z,0.70
2022-08-28T13:06:37.312Z,0.57
2022-08-28T13:09:14.579Z,0.80
2022-08-28T13:11:46.813Z,1.00
2022-08-28T13:14:13.785Z,1.15
2022-08-28T13:16:46.616Z,0.40
2022-08-28T13:19:33.445Z,1.42
2022-08-28T13:22:08.393Z,0.60
2022-08-28T13:24:35.287Z,0.77
2022-08-28T13:27:14.293Z,1.23
2022-08-28T13:30:05.094Z,0.38
2022-08-28T13:32:34.078Z,0.77
2022-08-28T13:35:21.947Z,0.93
2022-08-28T13:37:53.674Z,0.40
2022-08-28T13:40:55.823Z,0.57
2022-08-28T13:43:12.873Z,0.40
2022-08-28T13:45:42.816Z,1.10
2022-08-28T13:48:21.310Z,0.70
2022-08-28T13:50:50.789Z,0.60
2022-08-28T13:53:19.730Z,0.60
2022-08-28T13:55:49.876Z,0.43
2022-08-28T13:58:17.238Z,1.20
2022-08-28T14:00:46.845Z,0.75
2022-08-28T14:03:32.339Z,0.45
2022-08-28T14:05:59.372Z,0.60
2022-08-28T14:08:26.034Z,0.80
2022-08-28T14:10:52.821Z,0.68
2022-08-28T14:13:20.235Z,0.82
2022-08-28T14:15:47.549Z,0.95
2022-08-28T14:18:14.377Z,0.65
2022-08-28T14:20:41.265Z,0.80
2022-08-28T14:23:09.850Z,0.35
2022-08-28T14:25:46.288Z,1.00
2022-08-28T14:28:14.405Z,0.50
2022-08-28T14:30:46.303Z,0.77
2022-08-28T14:33:15.347Z,0.70
2022-08-28T14:35:42.714Z,0.38
2022-08-28T14:38:10.002Z,0.40
2022-08-28T14:40:41.889Z,0.40
2022-08-28T14:43:10.383Z,0.55
2022-08-28T14:45:48.006Z,0.30
2022-08-28T14:48:16.818Z,0.63
2022-08-28T14:50:45.823Z,0.90
2022-08-28T14:53:13.890Z,0.43
2022-08-28T14:55:46.435Z,0.77
2022-08-28T14:58:13.959Z,0.63
2022-08-28T15:00:46.732Z,0.90
2022-08-28T15:03:14.272Z,0.43
2022-08-28T15:05:41.478Z,0.38
2022-08-28T15:08:10.098Z,0.70
2022-08-28T15:10:41.019Z,0.43
2022-08-28T15:13:10.240Z,0.40
2022-08-28T15:15:39.521Z,0.75
2022-08-28T15:18:07.539Z,0.55
2022-08-28T15:20:43.267Z,0.40
2022-08-28T15:23:10.269Z,0.95
2022-08-28T15:25:37.495Z,0.43
2022-08-28T15:28:04.712Z,0.50
2022-08-28T15:30:31.553Z,0.45
2022-08-28T15:32:58.684Z,0.90
2022-08-28T15:35:25.572Z,0.63
2022-08-28T15:37:53.495Z,0.95
2022-08-28T15:40:39.812Z,1.33
2022-08-28T15:43:06.727Z,1.60
2022-08-28T15:45:37.521Z,2.53
2022-08-28T15:48:04.486Z,2.40
2022-08-28T15:50:31.582Z,2.97
2022-08-28T15:52:58.856Z,4.00
2022-08-28T15:55:27.353Z,4.50
2022-08-28T15:57:55.143Z,4.78
2022-08-28T16:00:22.546Z,3.20
2022-08-28T16:02:49.306Z,5.38
2022-08-28T16:05:16.403Z,6.00
2022-08-28T16:07:43.278Z,6.38
2022-08-28T16:10:13.374Z,4.22
2022-08-28T16:12:40.980Z,4.88
2022-08-28T16:15:08.865Z,6.00
2022-08-28T16:17:35.984Z,5.85
2022-08-28T16:20:06.643Z,6.25
2022-08-28T16:22:39.613Z,6.38
2022-08-28T16:25:07.361Z,6.28
2022-08-28T16:27:36.758Z,6.15
2022-08-28T16:30:04.926Z,5.93
2022-08-28T16:32:31.774Z,5.13
2022-08-28T16:34:58.506Z,5.53
2022-08-28T16:37:26.326Z,5.28
2022-08-28T16:40:08.909Z,5.13
2022-08-28T16:42:36.055Z,4.80
2022-08-28T16:47:33.025Z,4.50
2022-08-28T16:50:07.507Z,3.97
2022-08-28T16:52:35.866Z,3.80
2022-08-28T16:55:03.398Z,4.00
2022-08-28T16:57:30.358Z,3.60
2022-08-28T16:59:57.582Z,3.58
2022-08-28T17:02:25.273Z,3.50
2022-08-28T17:04:54.748Z,3.25
2022-08-28T17:07:21.554Z,2.90
2022-08-28T17:09:48.272Z,2.80
2022-08-28T17:12:15.421Z,1.60
2022-08-28T17:14:42.690Z,0.80
2022-08-28T17:17:09.463Z,0.77
2022-08-28T17:19:38.175Z,0.60
2022-08-28T17:22:24.297Z,0.40
2022-08-28T17:24:59.022Z,0.40
2022-08-28T17:27:26.474Z,0.50
2022-08-28T17:29:53.475Z,0.40
2022-08-28T17:32:20.642Z,0.82
2022-08-28T17:34:47.742Z,0.70
2022-08-28T17:37:15.258Z,0.65
2022-08-28T17:39:42.279Z,0.40
2022-08-28T17:42:09.127Z,0.35
2022-08-28T17:44:36.458Z,0.40
2022-08-28T17:47:03.325Z,0.50
2022-08-28T17:49:30.428Z,0.50
2022-08-28T17:51:57.359Z,0.47
2022-08-28T17:54:24.512Z,0.52
2022-08-28T17:56:55.369Z,0.30
2022-08-28T17:59:23.598Z,0.30
2022-08-28T18:01:50.610Z,0.50
2022-08-28T18:04:23.852Z,0.40
2022-08-28T18:06:54.215Z,0.82
2022-08-28T18:11:48.107Z,0.50
2022-08-28T18:14:14.858Z,0.40
2022-08-28T18:16:41.607Z,1.08
2022-08-28T18:19:09.993Z,0.52
2022-08-28T18:21:39.031Z,0.45
2022-08-28T18:24:06.891Z,0.63
2022-08-28T18:26:33.771Z,0.85
2022-08-28T18:29:00.786Z,0.38
2022-08-28T18:31:27.603Z,0.50
2022-08-28T18:33:54.811Z,0.60
2022-08-28T18:36:23.203Z,0.65
2022-08-28T18:38:50.343Z,0.40
2022-08-28T18:41:17.266Z,0.52
2022-08-28T18:43:44.010Z,1.27
2022-08-28T18:46:11.600Z,0.35
2022-08-28T18:48:38.402Z,1.23
2022-08-28T18:51:07.709Z,0.70
2022-08-28T18:53:34.638Z,0.38
2022-08-28T18:56:01.850Z,0.60
2022-08-28T18:58:31.504Z,0.95
2022-08-28T19:01:00.002Z,0.88
2022-08-28T19:03:27.180Z,0.50
2022-08-28T19:05:55.014Z,1.33
2022-08-28T19:08:23.134Z,0.40
2022-08-28T19:10:50.045Z,0.40
2022-08-28T19:13:16.766Z,0.85
2022-08-28T19:15:50.073Z,0.47
2022-08-28T19:18:17.046Z,0.68
2022-08-28T19:20:43.852Z,0.50
2022-08-28T19:23:13.201Z,0.50
2022-08-28T19:25:43.857Z,0.38
2022-08-28T19:28:10.568Z,0.73
2022-08-28T19:30:41.160Z,0.20
2022-08-28T19:33:08.026Z,0.30
2022-08-28T19:35:34.845Z,0.57
2022-08-28T19:38:01.946Z,0.50
2022-08-28T19:40:29.184Z,0.82
2022-08-28T19:42:56.141Z,0.68
2022-08-28T19:45:23.344Z,0.63
2022-08-28T19:47:50.178Z,0.50
2022-08-28T19:50:17.378Z,0.52
2022-08-28T19:52:45.001Z,0.25
2022-08-28T19:55:21.496Z,1.17
2022-08-28T19:57:49.335Z,0.20
2022-08-28T20:00:22.277Z,0.28
2022-08-28T20:02:52.126Z,0.32
2022-08-28T20:05:19.875Z,0.55
2022-08-28T20:07:47.038Z,1.02
2022-08-28T20:10:14.178Z,1.30
2022-08-28T20:12:48.397Z,0.60
2022-08-28T20:15:18.190Z,0.40
2022-08-28T20:17:49.564Z,0.50
2022-08-28T20:20:21.481Z,0.73
2022-08-28T20:22:48.891Z,0.75
2022-08-28T20:25:21.482Z,0.93
2022-08-28T20:27:48.253Z,0.55
2022-08-28T20:30:15.154Z,0.45
2022-08-28T20:32:41.859Z,0.32
2022-08-28T20:35:11.089Z,0.30
2022-08-28T20:37:45.440Z,1.00
2022-08-28T20:40:18.132Z,0.43
2022-08-28T20:42:45.342Z,0.45
2022-08-28T20:45:13.358Z,0.88
2022-08-28T20:47:40.101Z,0.68
2022-08-28T20:50:07.368Z,0.63
2022-08-28T20:52:34.341Z,0.90
2022-08-28T20:55:01.131Z,0.50
2022-08-28T20:57:28.001Z,0.52
2022-08-28T20:59:55.017Z,0.98
2022-08-28T21:02:27.084Z,0.20
2022-08-28T21:04:55.983Z,0.85
2022-08-28T21:07:24.988Z,0.52
2022-08-28T21:10:05.087Z,0.50
2022-08-28T21:12:39.458Z,0.35
2022-08-28T21:15:09.832Z,0.47
2022-08-28T21:17:37.923Z,0.82
2022-08-28T21:20:09.295Z,2.05
2022-08-28T21:22:38.052Z,0.63
2022-08-28T21:25:07.577Z,0.60
2022-08-28T21:27:35.580Z,0.40
2022-08-28T21:30:05.173Z,0.55
2022-08-28T21:32:34.485Z,1.02
2022-08-28T21:35:03.148Z,0.57
2022-08-28T21:37:31.076Z,1.02
2022-08-28T21:39:59.795Z,0.40
2022-08-28T21:42:27.835Z,1.05
2022-08-28T21:44:55.109Z,1.23
2022-08-28T21:47:23.422Z,0.25
2022-08-28T21:49:52.789Z,0.45
2022-08-28T21:52:21.463Z,0.95
2022-08-28T21:54:49.627Z,0.22
2022-08-28T21:57:17.851Z,0.40
2022-08-28T21:59:45.094Z,0.55
2022-08-28T22:02:12.313Z,1.63
2022-08-28T22:04:39.603Z,0.20
2022-08-28T22:07:07.274Z,0.30
2022-08-28T22:09:34.460Z,0.38
2022-08-28T22:12:01.667Z,1.08
2022-08-28T22:14:29.792Z,0.40
2022-08-28T22:16:56.985Z,0.60
2022-08-28T22:19:24.207Z,0.68
2022-08-28T22:22:09.723Z,0.75
2022-08-28T22:24:37.873Z,0.30
2022-08-28T22:27:06.001Z,0.45
2022-08-28T22:29:36.709Z,1.00
2022-08-28T22:32:08.415Z,0.50
2022-08-28T22:34:39.503Z,0.28
2022-08-28T22:37:07.955Z,0.55
2022-08-28T22:39:35.277Z,0.60
2022-08-28T22:42:03.854Z,0.65
2022-08-28T22:44:31.364Z,0.65
2022-08-28T22:46:58.809Z,0.50
2022-08-28T22:49:26.247Z,1.50
2022-08-28T22:51:53.383Z,0.40
2022-08-28T22:54:20.783Z,0.52
2022-08-28T22:56:47.996Z,0.70
2022-08-28T22:59:14.794Z,0.80
2022-08-28T23:01:42.674Z,0.70
2022-08-28T23:04:11.139Z,0.63
2022-08-28T23:06:40.423Z,0.25
2022-08-28T23:09:08.894Z,0.90
2022-08-28T23:11:37.090Z,0.38
2022-08-28T23:14:05.667Z,0.60
2022-08-28T23:16:35.360Z,0.28
2022-08-28T23:19:09.796Z,0.93
2022-08-28T23:21:43.481Z,0.28
2022-08-28T23:24:12.862Z,0.20
2022-08-28T23:26:40.300Z,0.43
2022-08-28T23:29:07.737Z,0.65
2022-08-28T23:31:35.006Z,0.70
2022-08-28T23:34:02.344Z,0.50
2022-08-28T23:36:29.509Z,0.43
2022-08-28T23:38:57.423Z,0.32
2022-08-28T23:41:24.982Z,0.30
2022-08-28T23:43:52.594Z,0.57
2022-08-28T23:46:20.306Z,0.77
2022-08-28T23:48:49.765Z,1.13
2022-08-28T23:51:17.794Z,0.38
2022-08-28T23:53:45.751Z,0.65
2022-08-28T23:56:14.704Z,0.30
2022-08-28T23:58:43.197Z,0.45
